This is the latest recevied weather packets stored in our database for station/object OH2NJR. If no packets are shown the sender has not sent any weather packets the latest 10 day(s).
| Time | Temp. | Humidity | Pressure | Rain* | Wind** | Luminosity | Snow |
|---|---|---|---|---|---|---|---|
| 1777546078 | 8.89° C | 73% | 1021.1 hPa | 0 mm | - | - | - |
| 1777544922 | 8.33° C | - | - | 0 mm | - | - | - |
| 1777544919 | 8.33° C | 74% | 1021.2 hPa | 0 mm | - | - | - |
| 1777543873 | 9.44° C | 70% | 1021.2 hPa | 0 mm | - | - | - |
| 1777542828 | 8.33° C | 74% | 1021.3 hPa | 0 mm | - | - | - |
| 1777541819 | 7.78° C | 76% | 1021.4 hPa | 0 mm | - | - | - |
| 1777540783 | 8.33° C | 75% | 1021.2 hPa | 0 mm | - | - | - |
| 1777539820 | 7.78° C | 76% | 1021.4 hPa | 0 mm | - | - | - |
| 1777538643 | 7.78° C | 73% | 1021.7 hPa | 0 mm | - | - | - |
| 1777537443 | 7.22° C | 71% | 1021.8 hPa | 0 mm | - | - | - |
| 1777536328 | 7.22° C | 72% | 1021.7 hPa | 0 mm | - | - | - |
| 1777535144 | - | - | - | - | - | - | - |
| 1777535138 | 7.22° C | 70% | 1021.7 hPa | 0 mm | - | - | - |
| 1777533965 | 6.67° C | 70% | 1021.7 hPa | 0 mm | - | - | - |
| 1777533963 | 6.67° C | 70% | 1021.7 hPa | 0 mm | - | - | - |
| 1777533960 | 6.67° C | 70% | 1021.7 hPa | 0 mm | - | - | - |
| 1777532880 | 6.11° C | 72% | 1021.8 hPa | 0 mm | - | - | - |
| 1777531873 | 5.56° C | 71% | 1021.7 hPa | 0 mm | - | - | - |
| 1777530793 | 5° C | 74% | 1021.6 hPa | 0 mm | - | - | - |
| 1777529708 | 5° C | 74% | 1022 hPa | 0 mm | - | - | - |
| 1777528697 | 5° C | 72% | 1022.1 hPa | 0 mm | - | - | - |
| 1777527568 | 4.44° C | 73% | 1022.3 hPa | 0 mm | - | - | - |
| 1777526454 | 4.44° C | 72% | 1022.2 hPa | 0 mm | - | - | - |
| 1777525369 | 4.44° C | 73% | 1022.3 hPa | 0 mm | - | - | - |
| 1777524354 | 3.89° C | 71% | 1022.3 hPa | 0 mm | - | - | - |
* Rain latest hour (hover to see other rain measurements)
** Current wind speed in m/s (hover to see current wind gust speed)